Aérodrome :
LOGIN :

S'inscrire | Disclaimer

   EN    FR    IT 

 










Légende :    VFR   VFR Marginal   IFR   IFR Intensif   IFR Très Intensif
Visi : 
Plafond : 
>= 8 km
>= 3000ft
5 à 8 km
1000 à 3000 ft
1500m à 5 km
500 à 1000 ft
800 à 1500m
200 à 500 ft
< 800m
< 200 ft
Symboles :   Orages  Brouillard  Fortes neiges  Fortes précipitations  Vent > 20 kt
SIGMETs :   Divers  Orages  Givrage  Turbulence  Onde Orograph.  Cendres Volcan.







- Altitude de l'aérodrome : 935 ft


EBFS - Florennes

DERNIER METAR :
  • 152055Z AUTO VRB02KT 9999 NCD 16/09 Q1016 BLU

METARs EXPIRÉS :
  • 152025Z AUTO VRB02KT 9999 NCD 16/09 Q1016 BLU
  • 151955Z AUTO VRB02KT 9999 NCD 15/09 Q1016 BLU
  • 151925Z AUTO VRB01KT 9999 FEW085/// SCT110/// BKN150/// 16/09 Q1015 BLU
  • 151855Z AUTO VRB01KT 9999 FEW090/// SCT120/// 18/08 Q1015 BLU
  • 151825Z AUTO VRB01KT 9999 FEW150/// 15/08 Q1015 BLU

TAF TAF EBFS
Valide du 15 à 19h jusqu'au 16 à 07h UTC


151541Z 1519/1607 12004KT 9999 FEW260
PROB30
TEMPO 1603/1607 VRB02KT 4500 BR
Pas de NOTAMs connus pour ce terrain.



MET'MAP, la Météo Aéronautique d'un coup d'oeil ! - Copyright ORBIFLY Décembre 2007 - Disclaimer

ORBIFLY MET'MAP TEAM :

Programmation & Développement : Alexandra Zaïnal
Conception & Développement : Baudouin d'Aumeries
Co-Programmation & Développement : Marc-Olivier Méhu
Soutien technique & logistique : Manuel Goepfert

Contact : metmap@orbifly.com




SOURCES & CREDITS :

   NOAA